Time;durP1;ratioP1;P1;durP2;ratioP2;P2;SDS_P1;SDS_P2;PMS_P1;PMS_P2;Temp;Humidity;BMP_temperature;BMP_pressure;BME280_temperature;BME280_humidity;BME280_pressure;Samples;Min_cycle;Max_cycle;Signal;HPM_P1;HPM_P2
2022/10/15 00:02:14;;;;;;;1999.90;999.90;;;14.60;99.90;;;;;;5028722;28;20478;-71
2022/10/15 00:04:40;;;;;;;1999.90;999.90;;;14.50;99.90;;;;;;5029418;28;20460;-71
2022/10/15 00:07:08;;;;;;;1999.90;999.90;;;14.60;99.90;;;;;;5028596;28;20472;-71
2022/10/15 00:09:35;;;;;;;1999.90;999.90;;;14.60;99.90;;;;;;5035590;28;20489;-72
2022/10/15 00:12:02;;;;;;;1999.90;999.90;;;14.60;99.90;;;;;;5047619;28;20455;-71
2022/10/15 00:14:29;;;;;;;1999.90;999.90;;;14.40;99.90;;;;;;5042402;28;20458;-71
2022/10/15 00:16:56;;;;;;;1999.90;999.90;;;14.60;99.90;;;;;;5046554;28;20941;-71
2022/10/15 00:19:23;;;;;;;1999.90;999.90;;;14.50;99.90;;;;;;5047824;28;20451;-71
2022/10/15 00:21:49;;;;;;;1999.90;999.90;;;14.40;99.90;;;;;;5031666;28;20464;-71
2022/10/15 00:24:19;;;;;;;1999.90;999.90;;;14.40;99.90;;;;;;5030168;28;20490;-72
2022/10/15 00:26:46;;;;;;;1999.90;999.90;;;14.50;99.90;;;;;;5028016;28;20451;-71
2022/10/15 00:29:13;;;;;;;1999.90;999.90;;;14.40;99.90;;;;;;5028663;28;20474;-71
2022/10/15 00:31:39;;;;;;;1999.90;999.90;;;14.40;99.90;;;;;;5028884;28;20470;-71
2022/10/15 00:34:06;;;;;;;1999.90;999.90;;;14.30;99.90;;;;;;5028219;28;20462;-71
2022/10/15 00:36:34;;;;;;;1999.90;999.90;;;14.30;99.90;;;;;;5027389;28;20482;-70
2022/10/15 00:39:02;;;;;;;1999.90;999.90;;;14.30;99.90;;;;;;5030203;28;20474;-71
2022/10/15 00:41:32;;;;;;;1999.90;999.90;;;14.30;99.90;;;;;;5031349;28;20959;-71
2022/10/15 00:44:01;;;;;;;1999.90;999.90;;;14.40;99.90;;;;;;5029056;28;20464;-71
2022/10/15 00:46:31;;;;;;;1999.90;999.90;;;14.40;99.90;;;;;;5023322;28;20796;-71
2022/10/15 00:49:01;;;;;;;1999.90;999.90;;;14.50;99.90;;;;;;5029611;28;20966;-71
2022/10/15 00:51:34;;;;;;;1999.90;999.90;;;14.50;99.90;;;;;;5025127;28;20489;-71
2022/10/15 00:54:01;;;;;;;1999.90;999.90;;;14.50;99.90;;;;;;5029756;28;20455;-71
2022/10/15 00:56:32;;;;;;;1999.90;999.90;;;14.50;99.90;;;;;;5024074;28;20490;-71
2022/10/15 00:59:00;;;;;;;1999.90;999.90;;;14.60;99.90;;;;;;5029058;28;20455;-71
2022/10/15 01:01:27;;;;;;;1999.90;999.90;;;14.50;99.90;;;;;;5025151;28;20482;-71
2022/10/15 01:03:55;;;;;;;1999.90;999.90;;;14.60;99.90;;;;;;5027653;28;20459;-71
2022/10/15 01:06:22;;;;;;;1999.90;999.90;;;14.60;99.90;;;;;;5027275;28;20447;-71
2022/10/15 01:08:49;;;;;;;1999.90;999.90;;;14.50;99.90;;;;;;5027779;28;20451;-71
2022/10/15 01:11:36;;;;;;;1999.90;999.90;;;14.50;99.90;;;;;;5027640;28;20491;-71
2022/10/15 01:14:15;;;;;;;1999.90;999.90;;;14.50;99.90;;;;;;5027923;28;20459;-71
2022/10/15 01:16:47;;;;;;;1999.90;999.90;;;14.50;99.90;;;;;;5030094;28;20844;-70
2022/10/15 01:19:38;;;;;;;1999.90;999.90;;;14.50;99.90;;;;;;5032208;28;20943;-71
2022/10/15 01:22:07;;;;;;;1999.90;999.90;;;14.50;99.90;;;;;;5031291;28;20463;-71
2022/10/15 01:24:45;;;;;;;1999.90;999.90;;;14.40;99.90;;;;;;5030148;28;20459;-71
2022/10/15 01:27:25;;;;;;;1999.90;999.90;;;14.50;99.90;;;;;;5031042;28;20470;-71
2022/10/15 01:30:20;;;;;;;1999.90;999.90;;;14.40;99.90;;;;;;5031212;28;20501;-71
2022/10/15 01:33:03;;;;;;;1999.90;999.90;;;14.30;99.90;;;;;;5029445;28;20951;-71
2022/10/15 01:35:35;;;;;;;1999.90;999.90;;;14.20;99.90;;;;;;5027739;28;20455;-71
2022/10/15 01:38:09;;;;;;;1999.90;999.90;;;14.20;99.90;;;;;;5029951;28;20455;-71
2022/10/15 01:40:42;;;;;;;1999.90;999.90;;;14.30;99.90;;;;;;5032327;28;20475;-70
2022/10/15 01:43:16;;;;;;;1999.90;999.90;;;14.20;99.90;;;;;;5030601;28;20467;-71
2022/10/15 01:45:48;;;;;;;1999.90;999.90;;;14.20;99.90;;;;;;5031787;28;20459;-71
2022/10/15 01:48:17;;;;;;;1999.90;999.90;;;14.20;99.90;;;;;;5029822;28;20451;-71
2022/10/15 01:50:48;;;;;;;1999.90;999.90;;;14.10;99.90;;;;;;5029491;28;20487;-71
2022/10/15 01:53:25;;;;;;;1999.90;999.90;;;14.20;99.90;;;;;;5031184;28;20470;-71
2022/10/15 01:55:53;;;;;;;1999.90;999.90;;;14.10;99.90;;;;;;5030514;28;20491;-71
2022/10/15 01:58:21;;;;;;;1999.90;999.90;;;14.10;99.90;;;;;;5030735;28;20467;-71
2022/10/15 02:00:51;;;;;;;1999.90;999.90;;;14.10;99.90;;;;;;5030502;28;20479;-71
2022/10/15 02:03:18;;;;;;;1999.90;999.90;;;14.10;99.90;;;;;;5031256;28;20982;-71
2022/10/15 02:05:48;;;;;;;1999.90;999.90;;;14.20;99.90;;;;;;5030068;28;20463;-71
2022/10/15 02:08:23;;;;;;;1999.90;999.90;;;14.20;99.90;;;;;;5030078;28;20492;-71
2022/10/15 02:10:56;;;;;;;1999.90;999.90;;;14.20;99.90;;;;;;5029896;28;20489;-71
2022/10/15 02:13:28;;;;;;;1999.90;999.90;;;14.60;99.90;;;;;;5029837;28;20951;-71
2022/10/15 02:16:03;;;;;;;1999.90;999.90;;;14.20;99.90;;;;;;5029408;28;20986;-71
2022/10/15 02:18:38;;;;;;;1999.90;999.90;;;14.20;99.90;;;;;;5026954;28;21038;-70
2022/10/15 02:21:10;;;;;;;1999.90;999.90;;;14.20;99.90;;;;;;5030593;28;20483;-71
2022/10/15 02:23:44;;;;;;;1999.90;999.90;;;14.20;99.90;;;;;;5030600;28;20461;-71
2022/10/15 02:26:13;;;;;;;1999.90;999.90;;;14.20;99.90;;;;;;5029712;28;20459;-71
2022/10/15 02:28:45;;;;;;;1999.90;999.90;;;14.20;99.90;;;;;;5030754;28;20466;-70
2022/10/15 02:31:15;;;;;;;1999.90;999.90;;;14.20;99.90;;;;;;5030322;28;20483;-71
2022/10/15 02:33:43;;;;;;;1999.90;999.90;;;14.20;99.90;;;;;;5029078;28;20463;-71
2022/10/15 02:36:10;;;;;;;1999.90;999.90;;;14.20;99.90;;;;;;5029747;28;20471;-71
2022/10/15 02:38:38;;;;;;;1999.90;999.90;;;14.30;99.90;;;;;;5030474;28;20459;-71
2022/10/15 02:41:05;;;;;;;1999.90;999.90;;;14.20;99.90;;;;;;5030243;28;20482;-70
2022/10/15 02:43:31;;;;;;;1999.90;999.90;;;14.20;99.90;;;;;;5031024;28;20466;-71
2022/10/15 02:45:58;;;;;;;1999.90;999.90;;;14.10;99.90;;;;;;5010892;28;20459;-69
2022/10/15 02:48:27;;;;;;;1999.90;999.90;;;14.10;99.90;;;;;;5030849;28;20463;-70
2022/10/15 02:50:54;;;;;;;1999.90;999.90;;;14.10;99.90;;;;;;5029164;28;20731;-70
2022/10/15 02:53:20;;;;;;;1999.90;999.90;;;14.10;99.90;;;;;;5029030;28;20493;-69
2022/10/15 02:55:47;;;;;;;1999.90;999.90;;;14.00;99.90;;;;;;5026759;28;20455;-69
2022/10/15 02:58:14;;;;;;;1999.90;999.90;;;14.20;99.90;;;;;;5027934;28;20513;-69
2022/10/15 03:00:41;;;;;;;1999.90;999.90;;;14.00;99.90;;;;;;5029851;28;20557;-70
2022/10/15 03:03:07;;;;;;;1999.90;999.90;;;14.10;99.90;;;;;;5029128;28;20842;-69
2022/10/15 03:05:35;;;;;;;1999.90;999.90;;;14.20;99.90;;;;;;5029418;28;20463;-69
2022/10/15 03:08:02;;;;;;;1999.90;999.90;;;14.10;99.90;;;;;;5029439;28;20466;-69
2022/10/15 03:10:29;;;;;;;1999.90;999.90;;;14.00;99.90;;;;;;5030522;28;20482;-71
2022/10/15 03:13:01;;;;;;;1999.90;999.90;;;14.00;99.90;;;;;;5029409;28;20530;-71
2022/10/15 03:15:28;;;;;;;1999.90;999.90;;;13.90;99.90;;;;;;5023968;28;20467;-71
2022/10/15 03:17:55;;;;;;;1999.90;999.90;;;13.90;99.90;;;;;;5030458;28;20483;-71
2022/10/15 03:20:22;;;;;;;1999.90;999.90;;;13.90;99.90;;;;;;5029963;28;20479;-71
2022/10/15 03:22:50;;;;;;;1999.90;999.90;;;13.80;99.90;;;;;;5030475;28;20459;-71
2022/10/15 03:25:17;;;;;;;1999.90;999.90;;;13.80;99.90;;;;;;5029091;28;20463;-70
2022/10/15 03:27:44;;;;;;;1999.90;999.90;;;13.80;99.90;;;;;;5029664;28;20461;-70
2022/10/15 03:30:11;;;;;;;1999.90;999.90;;;13.80;99.90;;;;;;5028707;28;20482;-71
2022/10/15 03:32:38;;;;;;;1999.90;999.90;;;13.70;99.90;;;;;;5029840;28;20489;-71
2022/10/15 03:35:05;;;;;;;1999.90;999.90;;;13.70;99.90;;;;;;5026812;28;20976;-71
2022/10/15 03:37:32;;;;;;;1999.90;999.90;;;13.80;99.90;;;;;;5028989;28;20490;-71
2022/10/15 03:40:00;;;;;;;1999.90;999.90;;;13.80;99.90;;;;;;5027607;28;20894;-71
2022/10/15 03:42:27;;;;;;;1999.90;999.90;;;13.80;99.90;;;;;;5024507;28;21160;-71
2022/10/15 03:44:54;;;;;;;1999.90;999.90;;;13.80;99.90;;;;;;5027420;28;20462;-71
2022/10/15 03:47:20;;;;;;;1999.90;999.90;;;13.90;99.90;;;;;;5027927;28;20459;-71
2022/10/15 03:49:47;;;;;;;1999.90;999.90;;;13.90;99.90;;;;;;5028422;28;20494;-71
2022/10/15 03:52:14;;;;;;;1999.90;999.90;;;13.90;99.90;;;;;;5028159;28;20469;-71
2022/10/15 03:54:41;;;;;;;1999.90;999.90;;;13.90;99.90;;;;;;5028697;28;20470;-71
2022/10/15 03:57:09;;;;;;;1999.90;999.90;;;13.80;99.90;;;;;;5029004;28;20490;-71
2022/10/15 03:59:37;;;;;;;1999.90;999.90;;;13.80;99.90;;;;;;5029919;28;20525;-71
2022/10/15 04:02:04;;;;;;;1999.90;999.90;;;13.80;99.90;;;;;;5028533;28;20505;-71
2022/10/15 04:04:31;;;;;;;1999.90;999.90;;;13.80;99.90;;;;;;5028593;28;20472;-71
2022/10/15 04:06:58;;;;;;;1999.90;999.90;;;13.80;99.90;;;;;;5028519;28;20471;-71
2022/10/15 04:09:24;;;;;;;1999.90;999.90;;;13.80;99.90;;;;;;5030571;28;20463;-71
2022/10/15 04:11:51;;;;;;;1999.90;999.90;;;13.80;99.90;;;;;;5028347;28;20550;-71
2022/10/15 04:14:19;;;;;;;1999.90;999.90;;;13.90;99.90;;;;;;5029640;28;20532;-69
2022/10/15 04:16:46;;;;;;;1999.90;999.90;;;13.90;99.90;;;;;;5028677;28;20986;-70
2022/10/15 04:19:13;;;;;;;1999.90;999.90;;;13.90;99.90;;;;;;5029019;28;20463;-71
2022/10/15 04:21:40;;;;;;;1999.90;999.90;;;14.10;99.90;;;;;;5028170;28;20485;-71
2022/10/15 04:24:07;;;;;;;1999.90;999.90;;;14.10;99.90;;;;;;5027559;28;20463;-71
2022/10/15 04:26:33;;;;;;;1999.90;999.90;;;14.00;99.90;;;;;;5028931;28;20458;-71
2022/10/15 04:29:00;;;;;;;1999.90;999.90;;;14.00;99.90;;;;;;5028132;28;20828;-71
2022/10/15 04:31:28;;;;;;;1999.90;999.90;;;14.00;99.90;;;;;;5029029;28;20478;-71
2022/10/15 04:33:55;;;;;;;1999.90;999.90;;;14.00;99.90;;;;;;5027593;28;20975;-71
2022/10/15 04:36:22;;;;;;;1999.90;999.90;;;13.90;99.90;;;;;;5028198;28;20462;-71
2022/10/15 04:38:48;;;;;;;1999.90;999.90;;;13.90;99.90;;;;;;5027461;28;20490;-70
2022/10/15 04:41:15;;;;;;;1999.90;999.90;;;13.90;99.90;;;;;;5030628;28;20494;-71
2022/10/15 04:43:42;;;;;;;1999.90;999.90;;;14.00;99.90;;;;;;5031548;28;20815;-71
2022/10/15 04:46:09;;;;;;;1999.90;999.90;;;14.00;99.90;;;;;;5027406;28;20858;-71
2022/10/15 04:48:38;;;;;;;1999.90;999.90;;;14.00;99.90;;;;;;5029942;28;20451;-71
2022/10/15 04:51:06;;;;;;;1999.90;999.90;;;14.00;99.90;;;;;;5054921;22;20505;-71
2022/10/15 04:53:33;;;;;;;1999.90;999.90;;;14.00;99.90;;;;;;5032527;28;20461;-70
2022/10/15 04:56:01;;;;;;;1999.90;999.90;;;14.00;99.90;;;;;;5043426;28;20462;-71
2022/10/15 04:58:30;;;;;;;1999.90;999.90;;;13.90;99.90;;;;;;5045421;28;20482;-70
2022/10/15 05:01:00;;;;;;;1999.90;999.90;;;14.40;99.90;;;;;;5044901;28;20857;-69
2022/10/15 05:03:26;;;;;;;1999.90;999.90;;;14.00;99.90;;;;;;5057589;28;20508;-68
2022/10/15 05:05:59;;;;;;;1999.90;999.90;;;14.00;99.90;;;;;;5052742;28;20986;-68
2022/10/15 05:08:26;;;;;;;1999.90;999.90;;;14.10;99.90;;;;;;5061603;28;20939;-69
2022/10/15 05:10:52;;;;;;;1999.90;999.90;;;14.10;99.90;;;;;;5057722;28;20873;-68
2022/10/15 05:13:19;;;;;;;1999.90;999.90;;;14.00;99.90;;;;;;5064236;28;20458;-69
2022/10/15 05:15:46;;;;;;;1999.90;999.90;;;14.00;99.90;;;;;;5054795;28;20465;-68
2022/10/15 05:18:13;;;;;;;1999.90;999.90;;;14.10;99.90;;;;;;5051023;28;20498;-69
2022/10/15 05:20:39;;;;;;;1999.90;999.90;;;14.20;99.90;;;;;;5051377;28;20489;-68
2022/10/15 05:23:07;;;;;;;1999.90;999.90;;;14.00;99.90;;;;;;5063044;28;20461;-68
2022/10/15 05:25:34;;;;;;;1999.90;999.90;;;14.00;99.90;;;;;;5057316;28;20469;-70
2022/10/15 05:28:01;;;;;;;1999.90;999.90;;;14.00;99.90;;;;;;5056255;28;20458;-69
2022/10/15 05:30:28;;;;;;;1999.90;999.90;;;13.90;99.90;;;;;;5059258;28;20587;-68
2022/10/15 05:32:55;;;;;;;1999.90;999.90;;;13.80;99.90;;;;;;5055186;28;20957;-68
2022/10/15 05:35:22;;;;;;;1999.90;999.90;;;13.80;99.90;;;;;;5059110;28;21053;-69
2022/10/15 05:37:49;;;;;;;1999.90;999.90;;;13.70;99.90;;;;;;5057022;28;20485;-67
2022/10/15 05:40:17;;;;;;;1999.90;999.90;;;13.70;99.90;;;;;;5052538;28;20486;-69
2022/10/15 05:42:44;;;;;;;1999.90;999.90;;;13.70;99.90;;;;;;5062033;28;20469;-69
2022/10/15 05:45:11;;;;;;;1999.90;999.90;;;13.70;99.90;;;;;;5058502;28;20465;-68
2022/10/15 05:47:38;;;;;;;1999.90;999.90;;;13.70;99.90;;;;;;5057481;28;20969;-67
2022/10/15 05:50:06;;;;;;;1999.90;999.90;;;13.70;99.90;;;;;;5051918;28;20481;-68
2022/10/15 05:52:33;;;;;;;1999.90;999.90;;;13.60;99.90;;;;;;5055595;28;20468;-69
2022/10/15 05:54:59;;;;;;;1999.90;999.90;;;13.60;99.90;;;;;;5060361;28;21285;-70
2022/10/15 05:57:27;;;;;;;1999.90;999.90;;;13.70;99.90;;;;;;5051882;28;20482;-70
2022/10/15 05:59:54;;;;;;;1999.90;999.90;;;13.70;99.90;;;;;;5050715;28;20478;-71
2022/10/15 06:02:21;;;;;;;1999.90;999.90;;;13.80;99.90;;;;;;5057806;28;20462;-70
2022/10/15 06:04:48;;;;;;;1999.90;999.90;;;13.80;99.90;;;;;;5065368;28;20457;-71
2022/10/15 06:07:15;;;;;;;1999.90;999.90;;;13.80;99.90;;;;;;5051893;28;20565;-69
2022/10/15 06:09:42;;;;;;;1999.90;999.90;;;13.80;99.90;;;;;;5057117;28;20458;-70
2022/10/15 06:12:08;;;;;;;1999.90;999.90;;;13.80;99.90;;;;;;5056141;28;20826;-69
2022/10/15 06:14:37;;;;;;;1999.90;999.90;;;13.80;99.90;;;;;;5062013;28;20462;-66
2022/10/15 06:17:03;;;;;;;1999.90;999.90;;;14.00;99.90;;;;;;5053308;28;20458;-69
2022/10/15 06:19:30;;;;;;;1999.90;999.90;;;14.00;99.90;;;;;;5052745;28;20852;-69
2022/10/15 06:21:57;;;;;;;1999.90;999.90;;;13.90;99.90;;;;;;5050907;28;20454;-69
2022/10/15 06:24:24;;;;;;;1999.90;999.90;;;13.90;99.90;;;;;;5057775;28;20462;-69
2022/10/15 06:26:51;;;;;;;1999.90;999.90;;;13.90;99.90;;;;;;5049877;28;20461;-70
2022/10/15 06:29:18;;;;;;;1999.90;999.90;;;13.80;99.90;;;;;;5055662;28;20945;-70
2022/10/15 06:31:46;;;;;;;1999.90;999.90;;;13.80;99.90;;;;;;5047091;28;20553;-70
2022/10/15 06:34:13;;;;;;;1999.90;999.90;;;13.90;99.90;;;;;;5056021;28;20472;-70
2022/10/15 06:36:39;;;;;;;1999.90;999.90;;;13.90;99.90;;;;;;5056839;28;20469;-69
2022/10/15 06:39:06;;;;;;;1999.90;999.90;;;13.90;99.90;;;;;;5055768;28;20485;-72
2022/10/15 06:41:33;;;;;;;1999.90;999.90;;;13.90;99.90;;;;;;5051857;28;20488;-70
2022/10/15 06:44:00;;;;;;;1999.90;999.90;;;13.90;99.90;;;;;;5052021;28;20978;-70
2022/10/15 06:46:26;;;;;;;1999.90;999.90;;;14.00;99.90;;;;;;5050184;28;20461;-70
2022/10/15 06:48:55;;;;;;;1999.90;999.90;;;14.10;99.90;;;;;;5051335;28;20455;-70
2022/10/15 06:51:22;;;;;;;1999.90;999.90;;;14.20;99.90;;;;;;5050277;28;20490;-70
2022/10/15 06:53:48;;;;;;;1999.90;999.90;;;14.20;99.90;;;;;;5050372;28;20461;-71
2022/10/15 06:56:15;;;;;;;1999.90;999.90;;;14.30;99.90;;;;;;5049825;28;20465;-70
2022/10/15 06:58:43;;;;;;;1999.90;999.90;;;14.30;99.90;;;;;;5051373;28;20493;-70
2022/10/15 07:01:09;;;;;;;1999.90;999.90;;;14.30;99.90;;;;;;5051932;28;20485;-70
2022/10/15 07:03:37;;;;;;;1999.90;999.90;;;14.40;99.90;;;;;;5051584;28;20467;-71
2022/10/15 07:06:08;;;;;;;1999.90;999.90;;;14.50;99.90;;;;;;5051009;28;20555;-69
2022/10/15 07:08:35;;;;;;;1999.90;999.90;;;14.60;99.90;;;;;;5050802;28;20457;-70
2022/10/15 07:11:03;;;;;;;1999.90;999.90;;;14.70;99.90;;;;;;5048494;28;20486;-69
2022/10/15 07:13:30;;;;;;;1999.90;999.90;;;14.80;99.90;;;;;;5050710;28;20485;-70
2022/10/15 07:15:57;;;;;;;1999.90;999.90;;;14.90;99.90;;;;;;5050261;28;20462;-71
2022/10/15 07:18:24;;;;;;;1999.90;999.90;;;15.00;99.90;;;;;;5051769;28;20493;-70
2022/10/15 07:20:51;;;;;;;1999.90;999.90;;;15.40;99.90;;;;;;5067329;28;20472;-69
2022/10/15 07:23:19;;;;;;;1999.90;999.90;;;15.70;99.90;;;;;;5072097;28;20452;-71
2022/10/15 07:25:45;;;;;;;1999.90;999.90;;;15.90;99.90;;;;;;5060988;28;20454;-71
2022/10/15 07:28:12;;;;;;;1999.90;999.90;;;15.60;99.90;;;;;;5051426;28;20457;-70
2022/10/15 07:30:39;;;;;;;1999.90;999.90;;;15.60;99.90;;;;;;5052150;28;20474;-71
2022/10/15 07:33:06;;;;;;;1999.90;999.90;;;15.70;99.90;;;;;;5050678;28;20459;-70
2022/10/15 07:35:33;;;;;;;1999.90;999.90;;;15.70;99.90;;;;;;5045364;28;20462;-70
2022/10/15 07:38:00;;;;;;;1999.90;999.90;;;15.80;99.90;;;;;;5050202;28;20482;-71
2022/10/15 07:40:29;;;;;;;1999.90;999.90;;;15.90;99.90;;;;;;5049527;28;20477;-71
2022/10/15 07:42:57;;;;;;;1999.90;999.90;;;15.80;99.90;;;;;;5047457;28;20450;-70
2022/10/15 07:45:24;;;;;;;1999.90;999.90;;;15.90;99.90;;;;;;5049756;28;20466;-69
2022/10/15 07:47:51;;;;;;;1999.90;999.90;;;16.00;99.90;;;;;;5049949;28;20469;-70
2022/10/15 07:50:19;;;;;;;1999.90;999.90;;;15.90;99.90;;;;;;5048300;28;21021;-69
2022/10/15 07:52:46;;;;;;;1999.90;999.90;;;16.00;99.90;;;;;;5051633;28;20970;-71
2022/10/15 07:55:13;;;;;;;1999.90;999.90;;;16.00;99.90;;;;;;5060069;28;20485;-70
2022/10/15 07:57:41;;;;;;;1999.90;999.90;;;16.00;99.90;;;;;;5057678;28;20476;-69
2022/10/15 08:00:09;;;;;;;1999.90;999.90;;;16.10;99.90;;;;;;5046965;28;20478;-71
2022/10/15 08:02:35;;;;;;;1999.90;999.90;;;16.00;99.90;;;;;;5060371;28;20472;-72
2022/10/15 08:05:02;;;;;;;1999.90;999.90;;;16.10;99.90;;;;;;5054401;28;20458;-70
2022/10/15 08:07:29;;;;;;;1999.90;999.90;;;16.50;99.90;;;;;;5048254;28;20454;-71
2022/10/15 08:09:56;;;;;;;1999.90;999.90;;;16.30;99.90;;;;;;5051124;28;20465;-70
2022/10/15 08:12:22;;;;;;;1999.90;999.90;;;16.60;99.90;;;;;;5050800;28;20458;-70
2022/10/15 08:14:50;;;;;;;1999.90;999.90;;;16.40;99.90;;;;;;5050917;28;20452;-71
2022/10/15 08:17:17;;;;;;;1999.90;999.90;;;16.50;99.90;;;;;;5051305;28;20468;-70
2022/10/15 08:19:44;;;;;;;1999.90;999.90;;;16.50;99.90;;;;;;5055017;28;21024;-70
2022/10/15 08:22:11;;;;;;;1999.90;999.90;;;16.60;99.90;;;;;;5051322;28;20468;-70
2022/10/15 08:24:38;;;;;;;1999.90;999.90;;;16.60;99.90;;;;;;5053783;28;20531;-70
2022/10/15 08:27:05;;;;;;;1999.90;999.90;;;16.60;99.90;;;;;;5050910;28;20461;-70
2022/10/15 08:29:31;;;;;;;1999.90;999.90;;;16.70;99.90;;;;;;5055057;28;20449;-70
2022/10/15 08:31:59;;;;;;;1999.90;999.90;;;17.00;99.90;;;;;;5051454;28;20984;-70
2022/10/15 08:34:26;;;;;;;1999.90;999.90;;;17.10;99.90;;;;;;5047539;28;20857;-69
2022/10/15 08:36:53;;;;;;;1999.90;999.90;;;17.30;99.90;;;;;;5052356;28;20465;-69
2022/10/15 08:39:20;;;;;;;1999.90;999.90;;;17.30;99.90;;;;;;5053922;28;20517;-71
2022/10/15 08:41:49;;;;;;;1999.90;999.90;;;17.40;99.90;;;;;;5053287;28;20481;-69
2022/10/15 08:44:23;;;;;;;1999.90;999.90;;;17.30;99.90;;;;;;5056630;28;20473;-70
2022/10/15 08:46:56;;;;;;;1999.90;999.90;;;17.40;99.90;;;;;;5050265;28;20462;-70
2022/10/15 08:49:33;;;;;;;1999.90;999.90;;;17.00;99.90;;;;;;5051133;28;20450;-69
2022/10/15 08:52:08;;;;;;;1999.90;999.90;;;17.00;99.90;;;;;;5053256;28;20449;-70
2022/10/15 08:54:36;;;;;;;1999.90;999.90;;;17.10;99.90;;;;;;5047398;28;20458;-71
2022/10/15 08:57:14;;;;;;;1999.90;999.90;;;17.10;99.90;;;;;;5052813;28;20473;-71
2022/10/15 08:59:49;;;;;;;1999.90;999.90;;;17.20;99.90;;;;;;5053732;28;20486;-71
2022/10/15 09:02:19;;;;;;;1999.90;999.90;;;17.20;99.90;;;;;;5051194;28;20466;-71
2022/10/15 09:04:55;;;;;;;1999.90;999.90;;;17.30;99.90;;;;;;5054378;28;20442;-68
2022/10/15 09:07:31;;;;;;;1999.90;999.90;;;17.40;99.90;;;;;;5053497;28;20958;-71
2022/10/15 09:10:06;;;;;;;1999.90;999.90;;;17.40;99.90;;;;;;5054096;28;20478;-70
2022/10/15 09:12:42;;;;;;;1999.90;999.90;;;17.40;99.90;;;;;;5046689;28;20461;-71
2022/10/15 09:15:13;;;;;;;1999.90;999.90;;;17.50;99.90;;;;;;5051388;28;20461;-71
2022/10/15 09:17:42;;;;;;;1999.90;999.90;;;17.40;99.90;;;;;;5051909;28;20465;-71
2022/10/15 09:20:17;;;;;;;1999.90;999.90;;;17.50;99.90;;;;;;5053157;28;20993;-71
2022/10/15 09:22:45;;;;;;;1999.90;999.90;;;17.70;99.90;;;;;;5048561;28;20438;-71
2022/10/15 09:25:16;;;;;;;1999.90;999.90;;;18.00;99.90;;;;;;5053200;28;20954;-71
2022/10/15 09:27:44;;;;;;;1999.90;999.90;;;18.20;99.90;;;;;;5053360;28;20457;-71
2022/10/15 09:30:22;;;;;;;1999.90;999.90;;;18.70;99.90;;;;;;5052286;28;20480;-71
2022/10/15 09:32:55;;;;;;;1999.90;999.90;;;18.90;99.90;;;;;;5046947;28;20856;-71
2022/10/15 09:35:28;;;;;;;1999.90;999.90;;;19.50;99.90;;;;;;5052801;28;20474;-71
2022/10/15 09:38:04;;;;;;;1999.90;999.90;;;19.70;99.90;;;;;;5046154;28;20462;-70
2022/10/15 09:40:42;;;;;;;1999.90;999.90;;;20.00;99.90;;;;;;5049377;28;21001;-71
2022/10/15 09:43:11;;;;;;;1999.90;999.90;;;19.90;99.90;;;;;;5052419;28;20465;-71
2022/10/15 09:45:38;;;;;;;1999.90;999.90;;;19.60;99.90;;;;;;5050626;28;20458;-70
2022/10/15 09:48:15;;;;;;;1999.90;999.90;;;19.20;99.90;;;;;;5046939;28;20454;-69
2022/10/15 09:50:46;;;;;;;1999.90;999.90;;;19.00;99.90;;;;;;5047601;28;20544;-69
2022/10/15 09:53:18;;;;;;;1999.90;999.90;;;18.60;99.90;;;;;;5048624;28;20850;-68
2022/10/15 09:55:51;;;;;;;1999.90;999.90;;;18.80;99.90;;;;;;5049297;28;20605;-71
2022/10/15 09:58:22;;;;;;;1999.90;999.90;;;19.00;99.90;;;;;;5044395;28;21070;-70
2022/10/15 10:00:54;;;;;;;1999.90;999.90;;;18.70;99.90;;;;;;5044417;28;20482;-70
2022/10/15 10:03:23;;;;;;;1999.90;999.90;;;18.80;99.90;;;;;;5046550;28;20459;-70
2022/10/15 10:05:58;;;;;;;1999.90;999.90;;;18.50;99.90;;;;;;5046069;28;20459;-70
2022/10/15 10:08:28;;;;;;;1999.90;999.90;;;18.40;99.90;;;;;;5047588;28;20472;-71
2022/10/15 10:10:56;;;;;;;1999.90;999.90;;;18.60;99.90;;;;;;5052408;28;20482;-71
2022/10/15 10:13:26;;;;;;;1999.90;999.90;;;18.60;99.90;;;;;;5050578;28;20461;-71
2022/10/15 10:15:54;;;;;;;1999.90;999.90;;;18.70;99.90;;;;;;5052169;28;20458;-70
2022/10/15 10:18:23;;;;;;;1999.90;999.90;;;18.90;99.90;;;;;;5052546;28;20462;-71
2022/10/15 10:20:57;;;;;;;1999.90;999.90;;;19.10;99.90;;;;;;5052551;28;20500;-71
2022/10/15 10:23:28;;;;;;;1999.90;999.90;;;19.20;99.90;;;;;;5052353;28;20836;-70
2022/10/15 10:25:57;;;;;;;1999.90;999.90;;;19.70;99.90;;;;;;5052339;28;20458;-69
2022/10/15 10:28:29;;;;;;;1999.90;999.90;;;19.50;99.90;;;;;;5050854;28;20459;-71
2022/10/15 10:31:06;;;;;;;1999.90;999.90;;;19.50;99.90;;;;;;5050939;28;20494;-71
2022/10/15 10:33:37;;;;;;;1999.90;999.90;;;19.60;99.90;;;;;;5051562;28;20461;-70
2022/10/15 10:36:07;;;;;;;1999.90;999.90;;;19.80;99.90;;;;;;5051623;28;20469;-71
2022/10/15 10:38:35;;;;;;;1999.90;999.90;;;20.20;99.90;;;;;;5051305;28;21216;-70
2022/10/15 10:41:06;;;;;;;1999.90;999.90;;;20.30;99.90;;;;;;5050923;28;20486;-71
2022/10/15 10:43:35;;;;;;;1999.90;999.90;;;20.60;99.90;;;;;;5052328;28;20446;-70
2022/10/15 10:46:04;;;;;;;1999.90;999.90;;;20.50;99.90;;;;;;5051107;28;20523;-71
2022/10/15 10:48:39;;;;;;;1999.90;999.90;;;20.60;99.90;;;;;;5051899;28;20823;-71
2022/10/15 10:51:11;;;;;;;1999.90;999.90;;;20.70;99.90;;;;;;5099191;22;20502;-70
2022/10/15 10:53:48;;;;;;;1999.90;999.90;;;20.80;99.90;;;;;;5035364;28;20458;-68
2022/10/15 10:56:17;;;;;;;1999.90;999.90;;;21.10;99.90;;;;;;5039903;28;20469;-67
2022/10/15 10:58:44;;;;;;;1999.90;999.90;;;21.20;99.90;;;;;;5040550;28;20443;-68
2022/10/15 11:01:13;;;;;;;1999.90;999.90;;;20.90;99.90;;;;;;5028295;28;20486;-65
2022/10/15 11:03:42;;;;;;;1999.90;999.90;;;20.40;99.90;;;;;;5031029;28;20843;-67
2022/10/15 11:06:37;;;;;;;1999.90;999.90;;;20.50;99.90;;;;;;5029405;28;20510;-66
2022/10/15 11:09:17;;;;;;;1999.90;999.90;;;20.30;99.90;;;;;;5029298;28;20464;-67
2022/10/15 11:11:56;;;;;;;1999.90;999.90;;;20.30;99.90;;;;;;5030360;28;20478;-67
2022/10/15 11:14:33;;;;;;;1999.90;999.90;;;20.20;99.90;;;;;;5030525;28;20470;-66
2022/10/15 11:17:10;;;;;;;1999.90;999.90;;;20.10;99.90;;;;;;5032814;28;20439;-68
2022/10/15 11:19:44;;;;;;;1999.90;999.90;;;20.20;99.90;;;;;;5040285;28;20909;-67
2022/10/15 11:22:47;;;;;;;1999.90;999.90;;;20.20;99.90;;;;;;5042953;28;20467;-67
2022/10/15 11:25:27;;;;;;;1999.90;999.90;;;19.60;99.90;;;;;;5032591;28;20660;-67
2022/10/15 11:28:15;;;;;;;1999.90;999.90;;;19.80;99.90;;;;;;5031120;28;20455;-67
2022/10/15 11:30:49;;;;;;;1999.90;999.90;;;19.70;99.90;;;;;;5035277;28;20466;-67
2022/10/15 11:33:37;;;;;;;1999.90;999.90;;;19.50;99.90;;;;;;5032537;28;20427;-68
2022/10/15 11:36:19;;;;;;;1999.90;999.90;;;19.60;99.90;;;;;;5032318;28;20454;-67
2022/10/15 11:38:55;;;;;;;1999.90;999.90;;;19.90;99.90;;;;;;5033142;28;20466;-67
2022/10/15 11:41:39;;;;;;;1999.90;999.90;;;20.20;99.90;;;;;;5039765;28;20483;-68
2022/10/15 11:44:28;;;;;;;1999.90;999.90;;;20.30;99.90;;;;;;5027950;28;20509;-67
2022/10/15 11:47:19;;;;;;;1999.90;999.90;;;20.40;99.90;;;;;;5030367;28;20435;-67
2022/10/15 11:49:58;;;;;;;1999.90;999.90;;;20.00;99.90;;;;;;5033995;28;20424;-67
2022/10/15 11:52:39;;;;;;;1999.90;999.90;;;19.70;99.90;;;;;;5038013;28;20493;-67
2022/10/15 11:55:14;;;;;;;1999.90;999.90;;;19.50;99.90;;;;;;5030492;28;20485;-70
2022/10/15 11:57:43;;;;;;;1999.90;999.90;;;19.40;99.90;;;;;;5028468;28;20458;-67
2022/10/15 12:00:20;;;;;;;1999.90;999.90;;;19.90;99.90;;;;;;5031561;28;20483;-66
2022/10/15 12:02:50;;;;;;;1999.90;999.90;;;20.00;99.90;;;;;;5036894;28;20947;-68
2022/10/15 12:05:21;;;;;;;1999.90;999.90;;;20.20;99.90;;;;;;5032164;28;20449;-68
2022/10/15 12:07:49;;;;;;;1999.90;999.90;;;20.20;99.90;;;;;;5028297;28;20491;-68
2022/10/15 12:10:32;;;;;;;1999.90;999.90;;;20.20;99.90;;;;;;5041505;28;20446;-67
2022/10/15 12:13:05;;;;;;;1999.90;999.90;;;20.20;99.90;;;;;;5052808;28;20856;-67